createdAt,value
2023-03-22T00:01:26.078Z,18.00
2023-03-22T00:03:53.132Z,16.00
2023-03-22T00:06:20.219Z,15.25
2023-03-22T00:08:50.434Z,17.00
2023-03-22T00:11:18.713Z,15.00
2023-03-22T00:13:45.643Z,18.00
2023-03-22T00:16:15.923Z,15.75
2023-03-22T00:18:42.871Z,16.00
2023-03-22T00:21:15.047Z,16.00
2023-03-22T00:23:42.144Z,14.00
2023-03-22T00:26:10.772Z,15.00
2023-03-22T00:28:38.982Z,15.75
2023-03-22T00:31:06.797Z,15.00
2023-03-22T00:33:36.622Z,14.75
2023-03-22T00:36:09.057Z,13.00
2023-03-22T00:38:42.554Z,11.00
2023-03-22T00:41:16.443Z,18.75
2023-03-22T00:43:45.774Z,15.50
2023-03-22T00:46:14.080Z,16.50
2023-03-22T00:48:41.601Z,20.00
2023-03-22T00:51:09.164Z,17.50
2023-03-22T00:53:39.337Z,13.00
2023-03-22T00:56:08.583Z,20.00
2023-03-22T00:58:43.927Z,20.50
2023-03-22T01:01:11.638Z,21.00
2023-03-22T01:03:38.658Z,16.75
2023-03-22T01:06:06.405Z,13.00
2023-03-22T01:08:33.618Z,13.00
2023-03-22T01:11:01.025Z,13.00
2023-03-22T01:13:28.612Z,12.00
2023-03-22T01:15:55.623Z,19.25
2023-03-22T01:18:23.320Z,22.00
2023-03-22T01:20:51.560Z,21.25
2023-03-22T01:23:18.561Z,21.00
2023-03-22T01:25:45.582Z,14.00
2023-03-22T01:28:12.686Z,15.00
2023-03-22T01:30:40.576Z,13.50
2023-03-22T01:33:07.936Z,14.75
2023-03-22T01:35:36.011Z,17.00
2023-03-22T01:38:04.467Z,16.75
2023-03-22T01:40:35.337Z,18.00
2023-03-22T01:43:03.026Z,17.75
2023-03-22T01:45:35.399Z,17.00
2023-03-22T01:48:12.365Z,14.00
2023-03-22T01:50:42.541Z,21.00
2023-03-22T01:53:12.785Z,19.00
2023-03-22T01:55:40.495Z,15.00
2023-03-22T01:58:18.705Z,17.00
2023-03-22T02:00:54.555Z,15.00
2023-03-22T02:04:19.527Z,13.00
2023-03-22T02:06:47.605Z,13.75
2023-03-22T02:09:18.210Z,15.25
2023-03-22T02:11:52.478Z,14.00
2023-03-22T02:14:59.405Z,20.00
2023-03-22T02:18:21.984Z,16.50
2023-03-22T02:21:05.634Z,16.75
2023-03-22T02:23:41.585Z,16.00
2023-03-22T02:26:11.387Z,21.25
2023-03-22T02:28:50.161Z,19.50
2023-03-22T02:31:30.535Z,19.75
2023-03-22T02:34:08.456Z,20.25
2023-03-22T02:37:00.173Z,18.00
2023-03-22T02:39:29.792Z,16.00
2023-03-22T02:42:05.748Z,16.00
2023-03-22T02:44:46.076Z,15.50
2023-03-22T02:47:43.631Z,18.00
2023-03-22T02:50:14.465Z,16.00
2023-03-22T02:52:48.579Z,18.00
2023-03-22T02:55:23.371Z,16.50
2023-03-22T02:57:57.387Z,15.50
2023-03-22T03:00:26.110Z,12.75
2023-03-22T03:02:58.080Z,13.00
2023-03-22T03:05:27.194Z,14.25
2023-03-22T03:08:00.829Z,18.50
2023-03-22T03:10:29.294Z,20.00
2023-03-22T03:12:56.113Z,17.00
2023-03-22T03:15:23.160Z,21.50
2023-03-22T03:18:08.728Z,19.75
2023-03-22T03:21:03.380Z,22.00
2023-03-22T03:24:03.126Z,19.75
2023-03-22T03:26:48.732Z,16.00
2023-03-22T03:29:25.245Z,20.50
2023-03-22T03:32:01.448Z,19.00
2023-03-22T03:34:38.943Z,18.00
2023-03-22T03:37:11.476Z,22.00
2023-03-22T03:39:44.531Z,18.50
2023-03-22T03:42:16.779Z,18.25
2023-03-22T03:44:44.438Z,18.75
2023-03-22T03:47:13.085Z,16.00
2023-03-22T03:49:40.137Z,17.00
2023-03-22T03:52:07.083Z,21.75
2023-03-22T03:54:34.497Z,24.25
2023-03-22T03:57:04.103Z,21.00
2023-03-22T03:59:31.485Z,23.00
2023-03-22T04:02:04.890Z,21.00
2023-03-22T04:04:35.683Z,22.00
2023-03-22T04:07:05.731Z,19.75
2023-03-22T04:09:37.582Z,19.00
2023-03-22T04:12:29.577Z,16.00
2023-03-22T04:15:12.120Z,20.75
2023-03-22T04:17:40.530Z,23.00
2023-03-22T04:20:11.478Z,26.00
2023-03-22T04:22:38.988Z,22.00
2023-03-22T04:25:07.466Z,21.75
2023-03-22T04:27:34.457Z,21.00
2023-03-22T04:30:10.523Z,21.00
2023-03-22T04:32:56.736Z,21.50
2023-03-22T04:35:35.978Z,23.00
2023-03-22T04:38:03.630Z,22.25
2023-03-22T04:40:32.243Z,21.00
2023-03-22T04:43:02.649Z,21.00
2023-03-22T04:45:43.842Z,24.00
2023-03-22T04:48:15.802Z,22.25
2023-03-22T04:50:43.879Z,21.00
2023-03-22T04:53:11.994Z,20.00
2023-03-22T04:55:41.192Z,19.00
2023-03-22T04:58:22.906Z,18.50
2023-03-22T05:00:55.418Z,19.50
2023-03-22T05:03:23.666Z,20.00
2023-03-22T05:06:00.770Z,20.25
2023-03-22T05:08:42.423Z,24.75
2023-03-22T05:11:19.066Z,28.00
2023-03-22T05:13:59.767Z,26.00
2023-03-22T05:16:30.869Z,23.50
2023-03-22T05:18:58.929Z,21.25
2023-03-22T05:21:30.037Z,22.50
2023-03-22T05:23:59.694Z,21.25
2023-03-22T05:26:27.420Z,21.00
2023-03-22T05:28:56.170Z,21.00
2023-03-22T05:31:37.254Z,25.50
2023-03-22T05:34:07.327Z,25.00
2023-03-22T05:36:36.330Z,22.00
2023-03-22T05:39:23.558Z,22.50
2023-03-22T05:41:55.061Z,23.75
2023-03-22T05:44:38.142Z,26.00
2023-03-22T05:47:14.016Z,27.50
2023-03-22T05:50:08.707Z,25.00
2023-03-22T05:52:35.922Z,22.25
2023-03-22T05:55:28.882Z,26.75
2023-03-22T05:57:59.714Z,28.00
2023-03-22T06:00:27.916Z,27.00
2023-03-22T06:03:23.922Z,24.00
2023-03-22T06:06:13.998Z,22.00
2023-03-22T06:08:53.344Z,22.50
2023-03-22T06:11:23.413Z,26.00
2023-03-22T06:13:50.867Z,23.00
2023-03-22T06:16:19.779Z,24.00
2023-03-22T06:18:47.666Z,26.00
2023-03-22T06:21:15.415Z,29.00
2023-03-22T06:23:42.688Z,24.00
2023-03-22T06:26:10.969Z,21.50
2023-03-22T06:28:41.693Z,21.00
2023-03-22T06:31:10.541Z,27.75
2023-03-22T06:33:52.654Z,26.50
2023-03-22T06:36:40.134Z,21.25
2023-03-22T06:39:31.290Z,24.00
2023-03-22T06:41:58.510Z,22.00
2023-03-22T06:44:26.572Z,22.00
2023-03-22T06:47:05.534Z,23.50
2023-03-22T06:49:50.889Z,27.00
2023-03-22T06:52:23.395Z,28.00
2023-03-22T06:54:55.584Z,26.50
2023-03-22T06:57:22.635Z,25.00
2023-03-22T06:59:52.810Z,22.00
2023-03-22T07:02:19.981Z,22.00
2023-03-22T07:05:22.409Z,22.25
2023-03-22T07:07:49.679Z,23.50
2023-03-22T07:10:16.990Z,23.00
2023-03-22T07:12:44.012Z,23.00
2023-03-22T07:15:15.293Z,21.50
2023-03-22T07:17:54.780Z,23.50
2023-03-22T07:20:21.814Z,27.00
2023-03-22T07:22:55.163Z,23.00
2023-03-22T07:25:25.200Z,24.50
2023-03-22T07:28:05.233Z,26.25
2023-03-22T07:30:32.289Z,23.00
2023-03-22T07:32:59.257Z,22.00
2023-03-22T07:35:28.593Z,21.00
2023-03-22T07:37:59.650Z,27.00
2023-03-22T07:40:34.682Z,27.00
2023-03-22T07:43:02.866Z,26.75
2023-03-22T07:45:42.633Z,23.75
2023-03-22T07:48:28.010Z,26.00
2023-03-22T07:51:12.996Z,22.00
2023-03-22T07:53:40.238Z,21.50
2023-03-22T07:56:07.521Z,22.50
2023-03-22T07:58:35.305Z,24.75
2023-03-22T08:01:07.697Z,27.50
2023-03-22T08:03:55.436Z,29.50
2023-03-22T08:06:40.374Z,25.00
2023-03-22T08:09:07.794Z,24.75
2023-03-22T08:11:35.837Z,29.25
2023-03-22T08:14:03.069Z,25.75
2023-03-22T08:16:32.948Z,23.00
2023-03-22T08:19:01.054Z,25.25
2023-03-22T08:21:30.059Z,24.50
2023-03-22T08:23:57.725Z,28.50
2023-03-22T08:26:24.627Z,27.50
2023-03-22T08:28:53.785Z,28.00
2023-03-22T08:31:21.025Z,24.50
2023-03-22T08:33:48.169Z,23.00
2023-03-22T08:36:18.245Z,24.00
2023-03-22T08:38:56.035Z,24.00
2023-03-22T08:41:32.860Z,28.00
2023-03-22T08:44:00.153Z,29.00
2023-03-22T08:46:27.282Z,31.00
2023-03-22T08:48:54.214Z,31.00
2023-03-22T08:51:30.151Z,26.00
2023-03-22T08:54:06.107Z,26.50
2023-03-22T08:56:51.703Z,25.00
2023-03-22T08:59:50.762Z,26.00
2023-03-22T09:02:30.367Z,31.50
2023-03-22T09:04:58.347Z,28.00
2023-03-22T09:07:25.775Z,28.00
2023-03-22T09:10:03.094Z,30.00
2023-03-22T09:12:31.638Z,27.25
2023-03-22T09:14:58.691Z,29.75
2023-03-22T09:17:28.213Z,31.00
2023-03-22T09:20:09.477Z,32.00
2023-03-22T09:22:42.851Z,32.00
2023-03-22T09:25:12.974Z,30.50
2023-03-22T09:27:43.129Z,26.50
2023-03-22T09:30:10.371Z,27.50
2023-03-22T09:32:37.523Z,32.00
2023-03-22T09:35:06.161Z,30.00
2023-03-22T09:37:40.753Z,32.25
2023-03-22T09:40:08.424Z,32.00
2023-03-22T09:42:48.336Z,31.00
2023-03-22T09:45:26.742Z,31.00
2023-03-22T09:47:55.979Z,31.00
2023-03-22T09:50:26.463Z,29.50
2023-03-22T09:52:54.110Z,33.00
2023-03-22T09:55:21.031Z,33.00
2023-03-22T09:58:11.174Z,31.00
2023-03-22T10:01:04.600Z,29.00
2023-03-22T10:04:01.741Z,30.50
2023-03-22T10:06:29.687Z,35.00
2023-03-22T10:09:11.775Z,34.00
2023-03-22T10:12:16.983Z,32.50
2023-03-22T10:15:09.384Z,31.00
2023-03-22T10:17:39.573Z,31.25
2023-03-22T10:20:34.447Z,29.00
2023-03-22T10:23:12.592Z,32.25
2023-03-22T10:25:42.067Z,33.00
2023-03-22T10:28:19.881Z,32.00
2023-03-22T10:30:53.574Z,30.00
2023-03-22T10:33:40.509Z,32.00
2023-03-22T10:36:14.018Z,34.00
2023-03-22T10:38:47.993Z,31.25
2023-03-22T10:41:25.133Z,33.00
2023-03-22T10:44:02.606Z,33.50
2023-03-22T10:46:37.366Z,32.00
2023-03-22T10:49:06.426Z,33.00
2023-03-22T10:51:40.740Z,32.00
2023-03-22T10:54:14.250Z,33.50
2023-03-22T10:56:41.244Z,31.75
2023-03-22T10:59:08.404Z,31.00
2023-03-22T11:01:44.029Z,32.25
2023-03-22T11:04:14.901Z,33.00
2023-03-22T11:06:56.458Z,33.25
2023-03-22T11:09:24.791Z,35.00
2023-03-22T11:11:54.180Z,31.50
2023-03-22T11:14:59.549Z,34.00
2023-03-22T11:17:26.671Z,31.50
2023-03-22T11:20:00.735Z,30.50
2023-03-22T11:22:38.588Z,29.50
2023-03-22T11:25:30.611Z,30.00
2023-03-22T11:28:28.699Z,31.25
2023-03-22T11:31:05.405Z,31.00
2023-03-22T11:33:33.447Z,32.25
2023-03-22T11:36:03.327Z,33.25
2023-03-22T11:38:41.483Z,33.00
2023-03-22T11:41:28.236Z,33.75
2023-03-22T11:44:02.660Z,33.50
2023-03-22T11:46:31.003Z,33.00
2023-03-22T11:49:01.996Z,33.00
2023-03-22T11:51:40.092Z,32.75
2023-03-22T11:54:09.294Z,33.00
2023-03-22T11:56:42.275Z,32.75
2023-03-22T11:59:14.196Z,33.00
2023-03-22T12:01:45.211Z,31.00
2023-03-22T12:04:17.771Z,31.00
2023-03-22T12:06:44.983Z,31.00
2023-03-22T12:09:11.877Z,31.00
2023-03-22T12:11:46.996Z,32.75
2023-03-22T12:14:23.980Z,33.00
2023-03-22T12:16:56.414Z,33.00
2023-03-22T12:19:58.792Z,33.00
2023-03-22T12:22:33.157Z,32.25
2023-03-22T12:25:00.444Z,33.00
2023-03-22T12:27:33.124Z,34.50
2023-03-22T12:30:06.114Z,33.00
2023-03-22T12:32:40.484Z,32.00
2023-03-22T12:35:17.552Z,33.00
2023-03-22T12:37:51.371Z,33.00
2023-03-22T12:40:40.889Z,31.00
2023-03-22T12:43:16.194Z,30.25
2023-03-22T12:45:55.051Z,30.00
2023-03-22T12:48:30.440Z,32.25
2023-03-22T12:51:02.905Z,33.00
2023-03-22T12:53:37.301Z,31.75
2023-03-22T12:56:04.636Z,31.00
2023-03-22T12:58:31.493Z,32.00
2023-03-22T13:01:33.327Z,31.00
2023-03-22T13:04:20.379Z,30.50
2023-03-22T13:06:47.297Z,31.00
2023-03-22T13:09:17.779Z,33.25
2023-03-22T13:12:08.513Z,29.00
2023-03-22T13:14:50.559Z,29.00
2023-03-22T13:17:23.591Z,30.75
2023-03-22T13:20:24.230Z,32.50
2023-03-22T13:22:51.202Z,30.00
2023-03-22T13:25:18.882Z,31.50
2023-03-22T13:27:45.802Z,29.00
2023-03-22T13:30:21.758Z,29.50
2023-03-22T13:32:55.763Z,32.00
2023-03-22T13:35:46.657Z,30.75
2023-03-22T13:38:27.511Z,31.75
2023-03-22T13:41:12.968Z,30.50
2023-03-22T13:43:39.875Z,32.00
2023-03-22T13:46:20.016Z,31.50
2023-03-22T13:48:47.514Z,32.00
2023-03-22T13:51:22.059Z,32.75
2023-03-22T13:54:03.174Z,31.00
2023-03-22T13:56:42.376Z,30.50
2023-03-22T13:59:26.859Z,28.00
2023-03-22T14:02:03.297Z,31.50
2023-03-22T14:04:52.134Z,29.50
2023-03-22T14:07:27.976Z,27.00
2023-03-22T14:10:01.082Z,27.00
2023-03-22T14:12:32.207Z,29.50
2023-03-22T14:15:06.703Z,33.00
2023-03-22T14:17:42.381Z,31.00
2023-03-22T14:20:34.764Z,29.25
